sensor_id;sensor_type;location;lat;lon;timestamp;pressure;altitude;pressure_sealevel;temperature;humidity
16777;BME280;8505;49.456;8.164;2023-07-29T00:00:25;99213.47;;;18.16;100.00
16777;BME280;8505;49.456;8.164;2023-07-29T00:02:55;99204.75;;;18.21;100.00
16777;BME280;8505;49.456;8.164;2023-07-29T00:05:23;99200.06;;;18.28;100.00
16777;BME280;8505;49.456;8.164;2023-07-29T00:07:51;99200.41;;;18.31;100.00
16777;BME280;8505;49.456;8.164;2023-07-29T00:10:19;99189.91;;;18.30;100.00
16777;BME280;8505;49.456;8.164;2023-07-29T00:12:47;99195.75;;;18.27;100.00
16777;BME280;8505;49.456;8.164;2023-07-29T00:15:14;99194.47;;;18.29;100.00
16777;BME280;8505;49.456;8.164;2023-07-29T00:17:42;99189.81;;;18.25;100.00
16777;BME280;8505;49.456;8.164;2023-07-29T00:20:12;99193.19;;;18.32;100.00
16777;BME280;8505;49.456;8.164;2023-07-29T00:22:39;99191.44;;;18.26;100.00
16777;BME280;8505;49.456;8.164;2023-07-29T00:25:07;99174.06;;;18.28;100.00
16777;BME280;8505;49.456;8.164;2023-07-29T00:27:35;99182.22;;;18.33;100.00
16777;BME280;8505;49.456;8.164;2023-07-29T00:30:04;99178.81;;;18.49;100.00
16777;BME280;8505;49.456;8.164;2023-07-29T00:32:32;99183.81;;;18.46;100.00
16777;BME280;8505;49.456;8.164;2023-07-29T00:35:00;99174.31;;;18.38;100.00
16777;BME280;8505;49.456;8.164;2023-07-29T00:37:29;99174.75;;;18.35;100.00
16777;BME280;8505;49.456;8.164;2023-07-29T00:39:57;99183.63;;;18.24;100.00
16777;BME280;8505;49.456;8.164;2023-07-29T00:42:25;99173.25;;;18.28;100.00
16777;BME280;8505;49.456;8.164;2023-07-29T00:44:53;99167.44;;;18.31;100.00
16777;BME280;8505;49.456;8.164;2023-07-29T00:47:22;99166.03;;;18.28;100.00
16777;BME280;8505;49.456;8.164;2023-07-29T00:49:50;99178.03;;;18.26;100.00
16777;BME280;8505;49.456;8.164;2023-07-29T00:52:19;99173.63;;;18.19;100.00
16777;BME280;8505;49.456;8.164;2023-07-29T00:54:48;99177.56;;;18.29;100.00
16777;BME280;8505;49.456;8.164;2023-07-29T00:57:16;99173.72;;;18.36;100.00
16777;BME280;8505;49.456;8.164;2023-07-29T00:59:45;99166.91;;;18.45;100.00
16777;BME280;8505;49.456;8.164;2023-07-29T01:02:13;99176.97;;;18.38;100.00
16777;BME280;8505;49.456;8.164;2023-07-29T01:04:41;99170.94;;;18.19;100.00
16777;BME280;8505;49.456;8.164;2023-07-29T01:07:15;99151.91;;;18.21;100.00
16777;BME280;8505;49.456;8.164;2023-07-29T01:09:55;99142.63;;;18.00;100.00
16777;BME280;8505;49.456;8.164;2023-07-29T01:12:28;99147.97;;;18.24;100.00
16777;BME280;8505;49.456;8.164;2023-07-29T01:15:07;99150.69;;;17.89;100.00
16777;BME280;8505;49.456;8.164;2023-07-29T01:17:42;99147.84;;;18.30;100.00
16777;BME280;8505;49.456;8.164;2023-07-29T01:20:13;99138.75;;;18.31;100.00
16777;BME280;8505;49.456;8.164;2023-07-29T01:22:41;99143.38;;;18.47;100.00
16777;BME280;8505;49.456;8.164;2023-07-29T01:25:11;99142.44;;;18.53;100.00
16777;BME280;8505;49.456;8.164;2023-07-29T01:27:38;99140.91;;;18.46;100.00
16777;BME280;8505;49.456;8.164;2023-07-29T01:30:07;99132.09;;;18.34;100.00
16777;BME280;8505;49.456;8.164;2023-07-29T01:32:38;99137.56;;;18.27;100.00
16777;BME280;8505;49.456;8.164;2023-07-29T01:35:15;99145.78;;;18.21;100.00
16777;BME280;8505;49.456;8.164;2023-07-29T01:37:48;99139.47;;;18.15;100.00
16777;BME280;8505;49.456;8.164;2023-07-29T01:40:18;99141.34;;;18.26;100.00
16777;BME280;8505;49.456;8.164;2023-07-29T01:42:46;99141.53;;;18.36;100.00
16777;BME280;8505;49.456;8.164;2023-07-29T01:45:14;99138.53;;;18.33;100.00
16777;BME280;8505;49.456;8.164;2023-07-29T01:47:41;99150.84;;;18.34;100.00
16777;BME280;8505;49.456;8.164;2023-07-29T01:50:10;99142.72;;;18.29;100.00
16777;BME280;8505;49.456;8.164;2023-07-29T01:52:37;99138.88;;;18.25;100.00
16777;BME280;8505;49.456;8.164;2023-07-29T01:55:06;99133.72;;;18.35;100.00
16777;BME280;8505;49.456;8.164;2023-07-29T01:57:35;99132.94;;;18.11;100.00
16777;BME280;8505;49.456;8.164;2023-07-29T02:00:03;99134.00;;;18.10;100.00
16777;BME280;8505;49.456;8.164;2023-07-29T02:02:31;99132.59;;;18.19;100.00
16777;BME280;8505;49.456;8.164;2023-07-29T02:04:59;99128.50;;;18.28;100.00
16777;BME280;8505;49.456;8.164;2023-07-29T02:07:27;99127.78;;;18.21;100.00
16777;BME280;8505;49.456;8.164;2023-07-29T02:09:55;99126.66;;;18.17;100.00
16777;BME280;8505;49.456;8.164;2023-07-29T02:12:22;99126.31;;;18.13;100.00
16777;BME280;8505;49.456;8.164;2023-07-29T02:14:51;99130.38;;;18.16;100.00
16777;BME280;8505;49.456;8.164;2023-07-29T02:17:19;99134.09;;;18.15;100.00
16777;BME280;8505;49.456;8.164;2023-07-29T02:19:47;99127.78;;;18.21;100.00
16777;BME280;8505;49.456;8.164;2023-07-29T02:22:16;99126.41;;;18.30;100.00
16777;BME280;8505;49.456;8.164;2023-07-29T02:24:44;99119.75;;;18.33;100.00
16777;BME280;8505;49.456;8.164;2023-07-29T02:27:12;99131.28;;;18.45;100.00
16777;BME280;8505;49.456;8.164;2023-07-29T02:29:40;99122.88;;;18.41;100.00
16777;BME280;8505;49.456;8.164;2023-07-29T02:32:09;99121.22;;;18.40;100.00
16777;BME280;8505;49.456;8.164;2023-07-29T02:34:37;99123.81;;;18.35;100.00
16777;BME280;8505;49.456;8.164;2023-07-29T02:37:04;99122.19;;;18.34;100.00
16777;BME280;8505;49.456;8.164;2023-07-29T02:39:32;99121.38;;;18.34;100.00
16777;BME280;8505;49.456;8.164;2023-07-29T02:42:00;99119.19;;;18.19;100.00
16777;BME280;8505;49.456;8.164;2023-07-29T02:44:28;99112.66;;;18.27;100.00
16777;BME280;8505;49.456;8.164;2023-07-29T02:46:55;99112.16;;;18.41;100.00
16777;BME280;8505;49.456;8.164;2023-07-29T02:49:25;99103.09;;;18.31;100.00
16777;BME280;8505;49.456;8.164;2023-07-29T02:51:52;99099.25;;;18.27;100.00
16777;BME280;8505;49.456;8.164;2023-07-29T02:54:20;99102.16;;;18.25;100.00
16777;BME280;8505;49.456;8.164;2023-07-29T02:56:50;99096.22;;;18.23;99.64
16777;BME280;8505;49.456;8.164;2023-07-29T02:59:18;99091.34;;;18.20;100.00
16777;BME280;8505;49.456;8.164;2023-07-29T03:01:46;99081.56;;;18.54;99.23
16777;BME280;8505;49.456;8.164;2023-07-29T03:04:13;99091.50;;;18.42;99.32
16777;BME280;8505;49.456;8.164;2023-07-29T03:06:42;99093.34;;;18.53;99.63
16777;BME280;8505;49.456;8.164;2023-07-29T03:09:10;99101.19;;;18.43;100.00
16777;BME280;8505;49.456;8.164;2023-07-29T03:11:38;99112.25;;;18.46;100.00
16777;BME280;8505;49.456;8.164;2023-07-29T03:14:06;99102.91;;;18.49;100.00
16777;BME280;8505;49.456;8.164;2023-07-29T03:16:34;99093.34;;;18.13;100.00
16777;BME280;8505;49.456;8.164;2023-07-29T03:19:02;99092.19;;;18.49;100.00
16777;BME280;8505;49.456;8.164;2023-07-29T03:21:30;99082.78;;;18.35;100.00
16777;BME280;8505;49.456;8.164;2023-07-29T03:23:59;99080.34;;;18.33;100.00
16777;BME280;8505;49.456;8.164;2023-07-29T03:26:26;99072.47;;;18.15;100.00
16777;BME280;8505;49.456;8.164;2023-07-29T03:28:54;99059.84;;;18.27;100.00
16777;BME280;8505;49.456;8.164;2023-07-29T03:31:22;99059.50;;;18.24;100.00
16777;BME280;8505;49.456;8.164;2023-07-29T03:33:49;99059.19;;;18.48;100.00
16777;BME280;8505;49.456;8.164;2023-07-29T03:36:17;99066.66;;;18.46;99.68
16777;BME280;8505;49.456;8.164;2023-07-29T03:38:45;99055.69;;;18.48;99.86
16777;BME280;8505;49.456;8.164;2023-07-29T03:41:15;99059.06;;;18.15;100.00
16777;BME280;8505;49.456;8.164;2023-07-29T03:43:42;99064.22;;;18.05;100.00
16777;BME280;8505;49.456;8.164;2023-07-29T03:46:10;99069.31;;;18.18;100.00
16777;BME280;8505;49.456;8.164;2023-07-29T03:48:38;99080.25;;;18.28;100.00
16777;BME280;8505;49.456;8.164;2023-07-29T03:51:06;99084.38;;;18.47;100.00
16777;BME280;8505;49.456;8.164;2023-07-29T03:53:33;99082.59;;;18.65;99.77
16777;BME280;8505;49.456;8.164;2023-07-29T03:56:02;99084.31;;;18.71;99.22
16777;BME280;8505;49.456;8.164;2023-07-29T03:58:31;99080.88;;;18.58;99.42
16777;BME280;8505;49.456;8.164;2023-07-29T04:00:58;99079.69;;;18.66;99.73
16777;BME280;8505;49.456;8.164;2023-07-29T04:03:26;99079.31;;;18.74;98.82
16777;BME280;8505;49.456;8.164;2023-07-29T04:05:54;99064.66;;;18.25;100.00
16777;BME280;8505;49.456;8.164;2023-07-29T04:08:21;99063.56;;;18.38;100.00
16777;BME280;8505;49.456;8.164;2023-07-29T04:10:49;99068.63;;;18.63;99.49
16777;BME280;8505;49.456;8.164;2023-07-29T04:13:17;99078.94;;;18.71;99.14
16777;BME280;8505;49.456;8.164;2023-07-29T04:15:46;99072.63;;;18.77;99.20
16777;BME280;8505;49.456;8.164;2023-07-29T04:18:14;99076.31;;;18.59;100.00
16777;BME280;8505;49.456;8.164;2023-07-29T04:20:42;99072.16;;;18.51;100.00
16777;BME280;8505;49.456;8.164;2023-07-29T04:23:09;99071.97;;;18.70;99.81
16777;BME280;8505;49.456;8.164;2023-07-29T04:25:37;99075.72;;;18.69;100.00
16777;BME280;8505;49.456;8.164;2023-07-29T04:28:05;99061.00;;;18.71;99.99
16777;BME280;8505;49.456;8.164;2023-07-29T04:30:33;99059.78;;;18.79;99.69
16777;BME280;8505;49.456;8.164;2023-07-29T04:33:02;99055.06;;;18.69;99.63
16777;BME280;8505;49.456;8.164;2023-07-29T04:35:30;99056.19;;;18.56;99.78
16777;BME280;8505;49.456;8.164;2023-07-29T04:37:58;99055.41;;;18.89;99.31
16777;BME280;8505;49.456;8.164;2023-07-29T04:40:25;99061.28;;;19.03;98.90
16777;BME280;8505;49.456;8.164;2023-07-29T04:42:53;99069.41;;;18.91;100.00
16777;BME280;8505;49.456;8.164;2023-07-29T04:45:21;99073.66;;;19.04;99.55
16777;BME280;8505;49.456;8.164;2023-07-29T04:47:48;99077.53;;;18.80;99.06
16777;BME280;8505;49.456;8.164;2023-07-29T04:50:17;99070.00;;;18.65;100.00
16777;BME280;8505;49.456;8.164;2023-07-29T04:52:45;99071.44;;;18.56;100.00
16777;BME280;8505;49.456;8.164;2023-07-29T04:55:13;99075.72;;;18.69;100.00
16777;BME280;8505;49.456;8.164;2023-07-29T04:57:40;99082.75;;;19.03;99.65
16777;BME280;8505;49.456;8.164;2023-07-29T05:00:09;99096.38;;;18.85;100.00
16777;BME280;8505;49.456;8.164;2023-07-29T05:02:37;99090.94;;;18.80;100.00
16777;BME280;8505;49.456;8.164;2023-07-29T05:05:06;99097.50;;;19.17;100.00
16777;BME280;8505;49.456;8.164;2023-07-29T05:07:35;99094.59;;;18.74;100.00
16777;BME280;8505;49.456;8.164;2023-07-29T05:10:04;99087.44;;;18.79;100.00
16777;BME280;8505;49.456;8.164;2023-07-29T05:12:32;99070.28;;;19.25;98.12
16777;BME280;8505;49.456;8.164;2023-07-29T05:15:00;99086.28;;;19.20;97.98
16777;BME280;8505;49.456;8.164;2023-07-29T05:17:27;99097.31;;;19.07;98.77
16777;BME280;8505;49.456;8.164;2023-07-29T05:19:55;99090.16;;;18.96;99.42
16777;BME280;8505;49.456;8.164;2023-07-29T05:22:23;99082.00;;;18.91;99.89
16777;BME280;8505;49.456;8.164;2023-07-29T05:24:52;99079.34;;;19.08;100.00
16777;BME280;8505;49.456;8.164;2023-07-29T05:27:20;99080.44;;;19.23;99.12
16777;BME280;8505;49.456;8.164;2023-07-29T05:29:48;99084.75;;;19.24;99.11
16777;BME280;8505;49.456;8.164;2023-07-29T05:32:16;99087.50;;;19.29;99.10
16777;BME280;8505;49.456;8.164;2023-07-29T05:34:43;99092.13;;;19.34;98.63
16777;BME280;8505;49.456;8.164;2023-07-29T05:37:11;99085.13;;;19.33;99.63
16777;BME280;8505;49.456;8.164;2023-07-29T05:39:39;99092.66;;;19.48;99.98
16777;BME280;8505;49.456;8.164;2023-07-29T05:42:08;99092.22;;;19.39;98.55
16777;BME280;8505;49.456;8.164;2023-07-29T05:44:36;99099.91;;;19.47;100.00
16777;BME280;8505;49.456;8.164;2023-07-29T05:47:04;99095.72;;;19.06;100.00
16777;BME280;8505;49.456;8.164;2023-07-29T05:49:32;99091.00;;;19.13;100.00
16777;BME280;8505;49.456;8.164;2023-07-29T05:52:00;99090.66;;;19.26;100.00
16777;BME280;8505;49.456;8.164;2023-07-29T05:54:27;99093.53;;;19.36;100.00
16777;BME280;8505;49.456;8.164;2023-07-29T05:56:55;99093.25;;;19.50;100.00
16777;BME280;8505;49.456;8.164;2023-07-29T05:59:24;99091.00;;;19.63;100.00
16777;BME280;8505;49.456;8.164;2023-07-29T06:01:56;99094.28;;;20.04;97.20
16777;BME280;8505;49.456;8.164;2023-07-29T06:04:23;99101.22;;;20.00;96.64
16777;BME280;8505;49.456;8.164;2023-07-29T06:06:51;99103.31;;;20.14;95.78
16777;BME280;8505;49.456;8.164;2023-07-29T06:09:19;99096.09;;;19.98;96.53
16777;BME280;8505;49.456;8.164;2023-07-29T06:11:47;99094.94;;;19.94;95.55
16777;BME280;8505;49.456;8.164;2023-07-29T06:14:15;99084.66;;;20.08;97.54
16777;BME280;8505;49.456;8.164;2023-07-29T06:16:44;99094.00;;;20.22;95.77
16777;BME280;8505;49.456;8.164;2023-07-29T06:19:12;99098.91;;;20.08;96.39
16777;BME280;8505;49.456;8.164;2023-07-29T06:21:39;99108.75;;;20.19;95.29
16777;BME280;8505;49.456;8.164;2023-07-29T06:24:07;99102.19;;;20.10;95.93
16777;BME280;8505;49.456;8.164;2023-07-29T06:26:36;99096.88;;;20.15;95.73
16777;BME280;8505;49.456;8.164;2023-07-29T06:29:04;99104.91;;;20.32;95.05
16777;BME280;8505;49.456;8.164;2023-07-29T06:31:32;99107.50;;;20.27;93.98
16777;BME280;8505;49.456;8.164;2023-07-29T06:34:01;99104.47;;;20.40;93.56
16777;BME280;8505;49.456;8.164;2023-07-29T06:36:29;99107.97;;;20.41;92.77
16777;BME280;8505;49.456;8.164;2023-07-29T06:38:57;99103.34;;;20.36;92.75
16777;BME280;8505;49.456;8.164;2023-07-29T06:41:26;99106.59;;;20.60;91.67
16777;BME280;8505;49.456;8.164;2023-07-29T06:43:53;99105.38;;;20.99;89.46
16777;BME280;8505;49.456;8.164;2023-07-29T06:46:21;99100.25;;;21.25;88.33
16777;BME280;8505;49.456;8.164;2023-07-29T06:48:49;99093.47;;;21.54;87.45
16777;BME280;8505;49.456;8.164;2023-07-29T06:51:17;99092.59;;;21.80;86.65
16777;BME280;8505;49.456;8.164;2023-07-29T06:53:45;99099.19;;;21.58;85.77
16777;BME280;8505;49.456;8.164;2023-07-29T06:56:13;99099.84;;;21.38;85.57
16777;BME280;8505;49.456;8.164;2023-07-29T06:58:41;99110.41;;;21.45;86.63
16777;BME280;8505;49.456;8.164;2023-07-29T07:01:08;99098.97;;;21.32;85.54
16777;BME280;8505;49.456;8.164;2023-07-29T07:03:36;99103.72;;;21.20;85.89
16777;BME280;8505;49.456;8.164;2023-07-29T07:06:04;99110.53;;;21.28;85.60
16777;BME280;8505;49.456;8.164;2023-07-29T07:08:33;99116.53;;;21.35;85.22
16777;BME280;8505;49.456;8.164;2023-07-29T07:11:01;99107.94;;;21.43;85.92
16777;BME280;8505;49.456;8.164;2023-07-29T07:13:29;99113.56;;;21.73;84.51
16777;BME280;8505;49.456;8.164;2023-07-29T07:15:57;99121.16;;;21.76;84.88
16777;BME280;8505;49.456;8.164;2023-07-29T07:18:24;99114.78;;;21.93;83.67
16777;BME280;8505;49.456;8.164;2023-07-29T07:20:53;99109.00;;;22.16;82.50
16777;BME280;8505;49.456;8.164;2023-07-29T07:23:22;99114.03;;;21.97;81.96
16777;BME280;8505;49.456;8.164;2023-07-29T07:25:51;99113.69;;;21.89;81.88
16777;BME280;8505;49.456;8.164;2023-07-29T07:28:19;99123.19;;;21.59;83.27
16777;BME280;8505;49.456;8.164;2023-07-29T07:30:47;99123.53;;;21.73;83.87
16777;BME280;8505;49.456;8.164;2023-07-29T07:33:15;99130.44;;;21.91;82.66
16777;BME280;8505;49.456;8.164;2023-07-29T07:35:43;99145.97;;;21.78;84.33
16777;BME280;8505;49.456;8.164;2023-07-29T07:38:11;99150.69;;;21.61;85.46
16777;BME280;8505;49.456;8.164;2023-07-29T07:40:39;99157.59;;;21.47;85.83
16777;BME280;8505;49.456;8.164;2023-07-29T07:43:09;99154.44;;;21.28;85.72
16777;BME280;8505;49.456;8.164;2023-07-29T07:45:36;99162.81;;;20.62;88.10
16777;BME280;8505;49.456;8.164;2023-07-29T07:48:04;99159.22;;;20.73;87.58
16777;BME280;8505;49.456;8.164;2023-07-29T07:50:32;99164.09;;;20.54;89.74
16777;BME280;8505;49.456;8.164;2023-07-29T07:53:00;99145.31;;;20.59;91.92
16777;BME280;8505;49.456;8.164;2023-07-29T07:55:27;99144.13;;;20.72;89.67
16777;BME280;8505;49.456;8.164;2023-07-29T07:57:55;99135.25;;;20.71;88.41
16777;BME280;8505;49.456;8.164;2023-07-29T08:00:24;99144.25;;;21.09;88.73
16777;BME280;8505;49.456;8.164;2023-07-29T08:02:52;99145.00;;;20.77;87.18
16777;BME280;8505;49.456;8.164;2023-07-29T08:05:20;99152.97;;;20.67;86.48
16777;BME280;8505;49.456;8.164;2023-07-29T08:07:47;99150.84;;;20.31;86.29
16777;BME280;8505;49.456;8.164;2023-07-29T08:10:15;99155.09;;;20.27;86.49
16777;BME280;8505;49.456;8.164;2023-07-29T08:12:43;99154.22;;;20.21;87.72
16777;BME280;8505;49.456;8.164;2023-07-29T08:15:11;99160.22;;;20.28;88.31
16777;BME280;8505;49.456;8.164;2023-07-29T08:17:40;99152.00;;;20.56;86.30
16777;BME280;8505;49.456;8.164;2023-07-29T08:20:09;99154.97;;;20.55;86.24
16777;BME280;8505;49.456;8.164;2023-07-29T08:22:38;99147.97;;;20.54;86.33
16777;BME280;8505;49.456;8.164;2023-07-29T08:25:06;99139.75;;;20.66;86.81
16777;BME280;8505;49.456;8.164;2023-07-29T08:27:34;99141.78;;;20.80;87.29
16777;BME280;8505;49.456;8.164;2023-07-29T08:30:02;99135.38;;;20.86;84.84
16777;BME280;8505;49.456;8.164;2023-07-29T08:32:29;99130.38;;;21.17;83.98
16777;BME280;8505;49.456;8.164;2023-07-29T08:34:59;99140.28;;;21.43;83.51
16777;BME280;8505;49.456;8.164;2023-07-29T08:37:26;99139.28;;;21.54;85.30
16777;BME280;8505;49.456;8.164;2023-07-29T08:39:56;99135.19;;;21.78;83.63
16777;BME280;8505;49.456;8.164;2023-07-29T08:42:29;99140.44;;;21.58;82.53
16777;BME280;8505;49.456;8.164;2023-07-29T08:45:01;99150.25;;;21.43;82.96
16777;BME280;8505;49.456;8.164;2023-07-29T08:47:33;99157.78;;;21.41;83.21
16777;BME280;8505;49.456;8.164;2023-07-29T08:50:03;99163.38;;;21.34;81.79
16777;BME280;8505;49.456;8.164;2023-07-29T08:52:32;99157.91;;;21.56;82.47
16777;BME280;8505;49.456;8.164;2023-07-29T08:55:02;99153.38;;;21.61;81.52
16777;BME280;8505;49.456;8.164;2023-07-29T08:57:30;99161.13;;;21.85;80.68
16777;BME280;8505;49.456;8.164;2023-07-29T08:59:58;99158.56;;;22.05;80.53
16777;BME280;8505;49.456;8.164;2023-07-29T09:02:26;99156.94;;;22.04;81.22
16777;BME280;8505;49.456;8.164;2023-07-29T09:04:54;99160.44;;;21.99;80.83
16777;BME280;8505;49.456;8.164;2023-07-29T09:07:24;99156.50;;;22.17;81.90
16777;BME280;8505;49.456;8.164;2023-07-29T09:09:52;99155.97;;;22.20;81.06
16777;BME280;8505;49.456;8.164;2023-07-29T09:12:20;99151.97;;;22.28;80.96
16777;BME280;8505;49.456;8.164;2023-07-29T09:14:51;99146.66;;;22.48;79.32
16777;BME280;8505;49.456;8.164;2023-07-29T09:17:19;99147.50;;;22.53;80.71
16777;BME280;8505;49.456;8.164;2023-07-29T09:19:48;99155.47;;;22.80;79.15
16777;BME280;8505;49.456;8.164;2023-07-29T09:22:20;99151.69;;;22.76;77.76
16777;BME280;8505;49.456;8.164;2023-07-29T09:24:49;99143.69;;;22.44;79.39
16777;BME280;8505;49.456;8.164;2023-07-29T09:27:27;99152.38;;;22.56;79.44
16777;BME280;8505;49.456;8.164;2023-07-29T09:29:58;99144.25;;;22.51;79.61
16777;BME280;8505;49.456;8.164;2023-07-29T09:32:27;99143.34;;;23.03;78.33
16777;BME280;8505;49.456;8.164;2023-07-29T09:34:54;99146.41;;;23.42;75.74
16777;BME280;8505;49.456;8.164;2023-07-29T09:37:23;99131.25;;;23.26;76.97
16777;BME280;8505;49.456;8.164;2023-07-29T09:39:52;99131.56;;;23.55;75.82
16777;BME280;8505;49.456;8.164;2023-07-29T09:42:21;99133.19;;;23.61;73.76
16777;BME280;8505;49.456;8.164;2023-07-29T09:44:50;99130.69;;;23.34;76.73
16777;BME280;8505;49.456;8.164;2023-07-29T09:47:21;99132.59;;;23.33;75.81
16777;BME280;8505;49.456;8.164;2023-07-29T09:49:50;99121.19;;;24.17;74.94
16777;BME280;8505;49.456;8.164;2023-07-29T09:52:19;99120.38;;;24.91;69.93
16777;BME280;8505;49.456;8.164;2023-07-29T09:54:47;99120.19;;;25.22;70.50
16777;BME280;8505;49.456;8.164;2023-07-29T09:57:18;99116.69;;;25.50;69.17
16777;BME280;8505;49.456;8.164;2023-07-29T09:59:53;99139.72;;;25.58;68.58
16777;BME280;8505;49.456;8.164;2023-07-29T10:02:21;99134.19;;;25.34;69.87
16777;BME280;8505;49.456;8.164;2023-07-29T10:04:51;99132.41;;;25.53;68.97
16777;BME280;8505;49.456;8.164;2023-07-29T10:07:19;99131.16;;;25.41;69.16
16777;BME280;8505;49.456;8.164;2023-07-29T10:09:50;99115.63;;;25.80;67.78
16777;BME280;8505;49.456;8.164;2023-07-29T10:12:21;99109.75;;;25.73;66.55
16777;BME280;8505;49.456;8.164;2023-07-29T10:14:50;99116.72;;;26.08;66.11
16777;BME280;8505;49.456;8.164;2023-07-29T10:17:19;99112.50;;;25.34;67.17
16777;BME280;8505;49.456;8.164;2023-07-29T10:19:48;99115.06;;;25.83;66.15
16777;BME280;8505;49.456;8.164;2023-07-29T10:22:20;99123.72;;;26.14;65.39
16777;BME280;8505;49.456;8.164;2023-07-29T10:24:48;99117.88;;;26.02;62.44
16777;BME280;8505;49.456;8.164;2023-07-29T10:27:18;99116.03;;;25.97;60.99
16777;BME280;8505;49.456;8.164;2023-07-29T10:29:48;99122.34;;;25.88;63.33
16777;BME280;8505;49.456;8.164;2023-07-29T10:32:16;99115.56;;;25.90;61.38
16777;BME280;8505;49.456;8.164;2023-07-29T10:34:44;99109.19;;;25.76;61.08
16777;BME280;8505;49.456;8.164;2023-07-29T10:37:12;99116.56;;;25.36;61.06
16777;BME280;8505;49.456;8.164;2023-07-29T10:39:51;99114.34;;;25.38;61.53
16777;BME280;8505;49.456;8.164;2023-07-29T10:42:19;99132.47;;;25.09;59.66
16777;BME280;8505;49.456;8.164;2023-07-29T10:44:52;99125.25;;;25.33;59.06
16777;BME280;8505;49.456;8.164;2023-07-29T10:47:24;99118.03;;;25.58;57.88
16777;BME280;8505;49.456;8.164;2023-07-29T10:49:54;99125.53;;;25.32;58.63
16777;BME280;8505;49.456;8.164;2023-07-29T10:52:31;99117.38;;;25.32;58.22
16777;BME280;8505;49.456;8.164;2023-07-29T10:55:23;99112.09;;;25.85;57.12
16777;BME280;8505;49.456;8.164;2023-07-29T10:57:51;99114.16;;;25.93;56.70
16777;BME280;8505;49.456;8.164;2023-07-29T11:00:20;99112.06;;;26.37;54.78
16777;BME280;8505;49.456;8.164;2023-07-29T11:02:58;99107.34;;;27.09;55.60
16777;BME280;8505;49.456;8.164;2023-07-29T11:05:26;99115.09;;;27.16;52.95
16777;BME280;8505;49.456;8.164;2023-07-29T11:07:54;99112.44;;;27.29;53.50
16777;BME280;8505;49.456;8.164;2023-07-29T11:10:22;99118.09;;;26.77;52.62
16777;BME280;8505;49.456;8.164;2023-07-29T11:12:50;99104.38;;;27.24;51.90
16777;BME280;8505;49.456;8.164;2023-07-29T11:15:22;99102.00;;;26.80;52.09
16777;BME280;8505;49.456;8.164;2023-07-29T11:17:52;99093.41;;;27.11;51.46
16777;BME280;8505;49.456;8.164;2023-07-29T11:20:23;99094.59;;;27.23;50.39
16777;BME280;8505;49.456;8.164;2023-07-29T11:22:52;99093.56;;;27.70;49.74
16777;BME280;8505;49.456;8.164;2023-07-29T11:25:21;99089.84;;;27.15;45.85
16777;BME280;8505;49.456;8.164;2023-07-29T11:27:52;99080.06;;;26.34;51.02
16777;BME280;8505;49.456;8.164;2023-07-29T11:30:22;99081.25;;;26.89;49.40
16777;BME280;8505;49.456;8.164;2023-07-29T11:32:53;99086.97;;;27.07;47.95
16777;BME280;8505;49.456;8.164;2023-07-29T11:35:21;99079.38;;;27.04;47.54
16777;BME280;8505;49.456;8.164;2023-07-29T11:37:51;99091.00;;;27.28;46.81
16777;BME280;8505;49.456;8.164;2023-07-29T11:40:20;99081.97;;;27.78;46.43
16777;BME280;8505;49.456;8.164;2023-07-29T11:42:50;99081.94;;;27.32;47.94
16777;BME280;8505;49.456;8.164;2023-07-29T11:45:22;99073.13;;;28.00;48.04
16777;BME280;8505;49.456;8.164;2023-07-29T11:48:06;99082.31;;;28.45;45.53
16777;BME280;8505;49.456;8.164;2023-07-29T11:50:34;99072.44;;;28.49;45.05
16777;BME280;8505;49.456;8.164;2023-07-29T11:53:02;99078.47;;;27.92;44.59
16777;BME280;8505;49.456;8.164;2023-07-29T11:55:30;99076.44;;;28.11;45.38
16777;BME280;8505;49.456;8.164;2023-07-29T11:57:58;99085.81;;;27.45;44.45
16777;BME280;8505;49.456;8.164;2023-07-29T12:00:28;99074.19;;;27.58;43.33
16777;BME280;8505;49.456;8.164;2023-07-29T12:02:56;99078.25;;;27.74;43.07
16777;BME280;8505;49.456;8.164;2023-07-29T12:05:25;99084.69;;;27.78;41.94
16777;BME280;8505;49.456;8.164;2023-07-29T12:07:52;99083.44;;;28.17;41.38
16777;BME280;8505;49.456;8.164;2023-07-29T12:10:20;99079.50;;;28.23;40.71
16777;BME280;8505;49.456;8.164;2023-07-29T12:12:49;99088.53;;;27.91;41.39
16777;BME280;8505;49.456;8.164;2023-07-29T12:15:24;99081.97;;;27.14;42.38
16777;BME280;8505;49.456;8.164;2023-07-29T12:17:55;99096.38;;;27.14;43.15
16777;BME280;8505;49.456;8.164;2023-07-29T12:20:27;99075.72;;;27.78;42.54
16777;BME280;8505;49.456;8.164;2023-07-29T12:22:58;99079.38;;;27.87;42.41
16777;BME280;8505;49.456;8.164;2023-07-29T12:25:28;99078.38;;;28.10;42.01
16777;BME280;8505;49.456;8.164;2023-07-29T12:27:56;99087.91;;;27.67;42.47
16777;BME280;8505;49.456;8.164;2023-07-29T12:30:24;99089.81;;;27.48;44.17
16777;BME280;8505;49.456;8.164;2023-07-29T12:32:54;99100.22;;;27.46;43.30
16777;BME280;8505;49.456;8.164;2023-07-29T12:35:21;99084.84;;;27.55;43.63
16777;BME280;8505;49.456;8.164;2023-07-29T12:37:58;99088.63;;;27.86;41.87
16777;BME280;8505;49.456;8.164;2023-07-29T12:40:26;99090.56;;;27.99;42.78
16777;BME280;8505;49.456;8.164;2023-07-29T12:42:54;99086.16;;;28.31;42.00
16777;BME280;8505;49.456;8.164;2023-07-29T12:45:22;99083.16;;;28.19;41.81
16777;BME280;8505;49.456;8.164;2023-07-29T12:47:55;99093.31;;;28.40;41.89
16777;BME280;8505;49.456;8.164;2023-07-29T12:50:23;99094.91;;;27.22;43.75
16777;BME280;8505;49.456;8.164;2023-07-29T12:52:51;99087.16;;;27.29;44.00
16777;BME280;8505;49.456;8.164;2023-07-29T12:55:18;99084.84;;;27.55;43.94
16777;BME280;8505;49.456;8.164;2023-07-29T12:57:49;99084.84;;;28.01;42.94
16777;BME280;8505;49.456;8.164;2023-07-29T13:00:17;99082.59;;;27.75;43.71
16777;BME280;8505;49.456;8.164;2023-07-29T13:02:45;99097.88;;;27.71;43.41
16777;BME280;8505;49.456;8.164;2023-07-29T13:05:14;99088.34;;;27.23;45.04
16777;BME280;8505;49.456;8.164;2023-07-29T13:07:43;99087.56;;;27.36;44.50
16777;BME280;8505;49.456;8.164;2023-07-29T13:10:11;99075.22;;;28.03;44.24
16777;BME280;8505;49.456;8.164;2023-07-29T13:12:39;99087.00;;;27.39;45.39
16777;BME280;8505;49.456;8.164;2023-07-29T13:15:07;99076.59;;;27.60;44.93